Time;durP1;ratioP1;P1;durP2;ratioP2;P2;SDS_P1;SDS_P2;PMS_P1;PMS_P2;Temp;Humidity;BMP_temperature;BMP_pressure;BME280_temperature;BME280_humidity;BME280_pressure;Samples;Min_cycle;Max_cycle;Signal;HPM_P1;HPM_P2
2024/01/13 00:02:13;;;;;;;6.80;1.60;;;;;;;-6.22;48.28;100324.15;105181;1260;59586;-55
2024/01/13 00:04:40;;;;;;;6.30;1.60;;;;;;;-6.19;48.10;100323.09;105370;1260;73159;-54
2024/01/13 00:07:08;;;;;;;9.20;2.60;;;;;;;-6.17;48.24;100325.45;105173;1257;69933;-53
2024/01/13 00:09:35;;;;;;;6.30;1.90;;;;;;;-6.12;48.22;100321.98;105166;1257;71720;-54
2024/01/13 00:12:04;;;;;;;6.30;2.00;;;;;;;-6.05;48.28;100318.64;105209;1257;61319;-54
2024/01/13 00:14:32;;;;;;;7.00;2.30;;;;;;;-5.99;48.26;100316.34;105563;1257;59647;-52
2024/01/13 00:16:59;;;;;;;6.60;2.90;;;;;;;-5.92;48.24;100306.49;105185;1259;71857;-53
2024/01/13 00:19:27;;;;;;;6.40;2.00;;;;;;;-5.88;48.30;100301.99;105154;1257;70286;-52
2024/01/13 00:21:55;;;;;;;6.50;2.70;;;;;;;-5.84;48.34;100297.15;105811;1259;71756;-54
2024/01/13 00:24:22;;;;;;;9.50;3.00;;;;;;;-5.83;48.37;100289.95;105750;1260;60874;-52
2024/01/13 00:26:50;;;;;;;10.10;2.00;;;;;;;-5.82;48.48;100277.80;105260;1261;62058;-52
2024/01/13 00:29:18;;;;;;;6.90;1.60;;;;;;;-5.82;48.45;100269.95;105212;1257;73091;-52
2024/01/13 00:31:45;;;;;;;5.00;1.40;;;;;;;-5.77;48.68;100264.42;105332;1257;69923;-51
2024/01/13 00:34:13;;;;;;;4.90;2.30;;;;;;;-5.76;48.65;100257.05;105836;1258;73072;-52
2024/01/13 00:36:40;;;;;;;9.30;2.40;;;;;;;-5.75;48.91;100249.69;105197;1259;59721;-53
2024/01/13 00:39:08;;;;;;;15.80;2.60;;;;;;;-5.73;48.85;100244.70;105235;1262;59654;-54
2024/01/13 00:41:36;;;;;;;9.00;2.80;;;;;;;-5.72;48.95;100243.31;105165;1257;73551;-54
2024/01/13 00:44:04;;;;;;;4.60;1.80;;;;;;;-5.71;49.09;100234.25;105419;1263;69954;-52
2024/01/13 00:46:32;;;;;;;6.80;1.70;;;;;;;-5.76;49.25;100228.01;105506;1257;72456;-54
2024/01/13 00:49:00;;;;;;;10.50;2.60;;;;;;;-5.81;49.34;100223.96;105203;1260;59685;-55
2024/01/13 00:51:28;;;;;;;9.40;2.70;;;;;;;-5.85;49.60;100219.09;105200;1261;60442;-54
2024/01/13 00:53:56;;;;;;;5.30;1.60;;;;;;;-5.86;49.72;100218.41;105705;1257;73014;-55
2024/01/13 00:56:24;;;;;;;7.20;1.60;;;;;;;-5.85;49.87;100213.28;105725;1260;69818;-55
2024/01/13 00:58:52;;;;;;;5.40;1.50;;;;;;;-5.81;50.09;100208.60;105207;1256;72654;-54
2024/01/13 01:01:19;;;;;;;3.40;1.20;;;;;;;-5.78;50.38;100210.44;105172;1257;60927;-53
2024/01/13 01:03:47;;;;;;;10.00;3.40;;;;;;;-5.75;50.66;100204.41;105181;1262;60441;-52
2024/01/13 01:06:16;;;;;;;6.20;1.50;;;;;;;-5.77;51.39;100198.64;105385;1258;73813;-54
2024/01/13 01:08:44;;;;;;;7.10;1.90;;;;;;;-5.74;52.50;100190.55;105284;1263;70481;-52
2024/01/13 01:11:12;;;;;;;6.10;1.50;;;;;;;-5.68;53.00;100179.67;105323;1263;70984;-53
2024/01/13 01:13:40;;;;;;;7.90;2.10;;;;;;;-5.61;53.41;100176.84;105182;1262;60939;-53
2024/01/13 01:16:08;;;;;;;7.40;2.00;;;;;;;-5.55;53.61;100171.61;105221;1260;60385;-53
2024/01/13 01:18:36;;;;;;;4.90;1.80;;;;;;;-5.47;53.73;100166.67;105209;1257;72112;-54
2024/01/13 01:21:13;;;;;;;5.10;1.20;;;;;;;-5.36;53.67;100166.16;105221;1260;69038;-53
2024/01/13 01:23:44;;;;;;;4.90;1.30;;;;;;;-5.31;53.42;100158.53;105245;1260;72687;-53
2024/01/13 01:26:12;;;;;;;4.80;1.40;;;;;;;-5.27;53.49;100144.45;105217;1257;60558;-54
2024/01/13 01:28:40;;;;;;;5.10;1.30;;;;;;;-5.19;53.28;100134.89;105352;1258;60382;-52
2024/01/13 01:31:08;;;;;;;3.90;1.50;;;;;;;-5.14;53.00;100125.73;105266;1257;73879;-52
2024/01/13 01:33:37;;;;;;;6.40;1.90;;;;;;;-5.10;52.67;100118.80;105228;1258;68267;-54
2024/01/13 01:36:07;;;;;;;9.50;2.00;;;;;;;-5.07;52.30;100113.45;105141;1260;70718;-55
2024/01/13 01:38:36;;;;;;;3.00;1.20;;;;;;;-5.05;52.21;100106.02;105609;1257;60447;-52
2024/01/13 01:41:14;;;;;;;;;;;;;;;-5.02;51.92;100104.29;105357;1260;60386;-53
2024/01/13 01:43:44;;;;;;;7.40;1.40;;;;;;;-5.05;51.76;100096.98;105247;1258;74905;-56
2024/01/13 01:46:13;;;;;;;7.20;2.10;;;;;;;-5.02;51.74;100089.58;105205;1262;70278;-54
2024/01/13 01:48:41;;;;;;;7.30;1.90;;;;;;;-4.98;51.58;100079.73;105286;1260;71189;-54
2024/01/13 01:51:15;;;;;;;8.10;3.50;;;;;;;-4.97;51.62;100072.18;105276;1261;60450;-55
2024/01/13 01:53:44;;;;;;;5.90;1.90;;;;;;;-4.95;51.63;100065.80;105323;1257;60549;-53
2024/01/13 01:56:14;;;;;;;10.80;2.20;;;;;;;-4.88;51.72;100057.79;105127;1262;73797;-55
2024/01/13 01:58:42;;;;;;;8.30;1.50;;;;;;;-4.82;51.56;100049.77;105381;1257;70263;-54
2024/01/13 02:01:11;;;;;;;7.50;1.70;;;;;;;-4.80;51.55;100040.50;105030;1264;73346;-55
2024/01/13 02:03:38;;;;;;;6.40;2.60;;;;;;;-4.75;51.72;100030.46;105202;1262;60501;-54
2024/01/13 02:06:07;;;;;;;6.90;2.40;;;;;;;-4.73;51.67;100026.14;105448;1260;60415;-53
2024/01/13 02:08:39;;;;;;;5.60;2.20;;;;;;;-4.85;51.81;100031.52;105271;1257;72647;-53
2024/01/13 02:11:12;;;;;;;6.40;2.00;;;;;;;-4.94;51.95;100018.89;105363;1262;70096;-53
2024/01/13 02:13:43;;;;;;;6.00;1.50;;;;;;;-5.05;52.17;100012.14;105324;1261;71362;-52
2024/01/13 02:16:11;;;;;;;6.60;2.00;;;;;;;-5.17;52.37;100003.66;105263;1258;60578;-52
2024/01/13 02:18:39;;;;;;;7.20;2.70;;;;;;;-5.27;52.70;99991.40;105338;1259;60430;-54
2024/01/13 02:21:13;;;;;;;5.30;2.30;;;;;;;-5.38;52.74;99981.04;105270;1262;73926;-54
2024/01/13 02:23:43;;;;;;;8.60;3.70;;;;;;;-5.47;52.96;99971.48;105327;1260;69045;-53
2024/01/13 02:26:11;;;;;;;6.10;2.60;;;;;;;-5.56;53.16;99968.92;105248;1263;71328;-54
2024/01/13 02:28:39;;;;;;;9.70;2.30;;;;;;;-5.61;53.41;99966.27;105244;1257;61804;-53
2024/01/13 02:31:15;;;;;;;3.30;1.00;;;;;;;-5.54;53.29;99963.94;105242;1260;60934;-55
2024/01/13 02:33:49;;;;;;;8.00;1.80;;;;;;;-5.48;53.32;99959.19;105773;1262;72368;-55
2024/01/13 02:36:18;;;;;;;8.60;1.90;;;;;;;-5.39;53.32;99953.70;105840;1257;69635;-57
2024/01/13 02:38:46;;;;;;;3.70;1.20;;;;;;;-5.30;53.37;99951.29;105130;1257;73087;-55
2024/01/13 02:41:14;;;;;;;6.60;1.50;;;;;;;-5.22;53.23;99950.25;105289;1257;60815;-55
2024/01/13 02:43:42;;;;;;;8.30;2.20;;;;;;;-5.12;53.29;99946.11;105280;1260;60364;-56
2024/01/13 02:46:09;;;;;;;7.70;2.30;;;;;;;-5.02;53.22;99942.61;105151;1263;73864;-56
2024/01/13 02:48:41;;;;;;;7.10;2.00;;;;;;;-4.91;53.11;99944.25;105445;1256;70820;-55
2024/01/13 02:51:14;;;;;;;8.70;1.90;;;;;;;-4.82;52.98;99938.39;105194;1263;70921;-55
2024/01/13 02:53:43;;;;;;;7.50;1.80;;;;;;;-4.77;52.74;99933.47;105320;1258;60780;-56
2024/01/13 02:56:12;;;;;;;7.60;1.60;;;;;;;-4.73;52.68;99933.03;105968;1258;60644;-56
2024/01/13 02:58:40;;;;;;;8.80;2.80;;;;;;;-4.68;52.61;99926.42;105278;1262;73863;-55
2024/01/13 03:01:13;;;;;;;5.80;2.30;;;;;;;-4.66;52.44;99921.92;105317;1258;69940;-55
2024/01/13 03:03:45;;;;;;;4.90;2.30;;;;;;;-4.62;52.36;99919.42;105179;1261;71796;-54
2024/01/13 03:06:13;;;;;;;7.80;1.90;;;;;;;-4.63;52.35;99915.51;105249;1258;60867;-56
2024/01/13 03:08:41;;;;;;;5.50;1.80;;;;;;;-4.66;52.34;99906.34;105310;1260;60361;-55
2024/01/13 03:11:10;;;;;;;7.30;2.10;;;;;;;-4.65;52.50;99907.70;105449;1260;73866;-54
2024/01/13 03:13:38;;;;;;;3.40;1.10;;;;;;;-4.66;52.58;99903.77;105432;1257;69963;-56
2024/01/13 03:16:08;;;;;;;7.10;2.20;;;;;;;-4.69;52.65;99901.09;105247;1257;71583;-55
2024/01/13 03:18:36;;;;;;;4.80;1.60;;;;;;;-4.74;53.33;99900.90;105366;1260;60361;-57
2024/01/13 03:21:10;;;;;;;8.10;1.80;;;;;;;-4.72;53.57;99902.53;105329;1262;60354;-55
2024/01/13 03:23:39;;;;;;;4.50;1.20;;;;;;;-4.69;53.60;99900.75;105434;1263;73870;-55
2024/01/13 03:26:07;;;;;;;6.70;2.50;;;;;;;-4.72;53.60;99891.77;105456;1260;68658;-56
2024/01/13 03:28:35;;;;;;;7.10;2.20;;;;;;;-4.73;53.72;99888.71;105366;1259;70922;-55
2024/01/13 03:31:09;;;;;;;7.20;2.10;;;;;;;-4.71;53.66;99885.25;105210;1256;60872;-55
2024/01/13 03:33:39;;;;;;;12.40;2.90;;;;;;;-4.71;53.55;99878.40;105313;1260;60380;-54
2024/01/13 03:36:07;;;;;;;6.70;2.40;;;;;;;-4.73;53.57;99869.37;105233;1257;72438;-55
2024/01/13 03:38:35;;;;;;;4.90;2.10;;;;;;;-4.72;53.52;99864.05;105219;1263;69960;-56
2024/01/13 03:41:11;;;;;;;9.50;2.60;;;;;;;-4.70;53.60;99867.41;105091;1263;71258;-56
2024/01/13 03:43:39;;;;;;;8.40;3.10;;;;;;;-4.67;53.72;99865.81;105374;1257;60526;-61
2024/01/13 03:46:06;;;;;;;11.80;2.70;;;;;;;-4.64;53.79;99865.23;105267;1257;60478;-56
2024/01/13 03:48:34;;;;;;;3.70;1.50;;;;;;;-4.62;53.89;99861.41;105442;1257;74463;-54
2024/01/13 03:51:02;;;;;;;8.20;1.80;;;;;;;-4.57;53.84;99856.46;105242;1263;70086;-55
2024/01/13 03:53:32;;;;;;;10.30;2.50;;;;;;;-4.55;53.90;99854.89;105601;1258;71747;-55
2024/01/13 03:56:04;;;;;;;7.70;1.80;;;;;;;-4.49;54.03;99852.50;105486;1257;60510;-57
2024/01/13 03:58:33;;;;;;;5.90;1.60;;;;;;;-4.41;54.00;99850.92;105459;1260;60685;-58
2024/01/13 04:01:02;;;;;;;9.40;2.50;;;;;;;-4.33;53.81;99848.46;105534;1260;74205;-55
2024/01/13 04:03:30;;;;;;;7.60;2.70;;;;;;;-4.28;53.62;99842.52;105572;1257;68196;-56
2024/01/13 04:06:02;;;;;;;9.40;2.90;;;;;;;-4.33;53.63;99836.48;105594;1258;71484;-56
2024/01/13 04:08:31;;;;;;;8.40;2.50;;;;;;;-4.37;53.67;99832.48;105205;1262;60561;-56
2024/01/13 04:10:58;;;;;;;5.80;1.60;;;;;;;-4.47;53.55;99828.80;105650;1258;60539;-56
2024/01/13 04:13:26;;;;;;;6.80;2.30;;;;;;;-4.62;53.57;99827.50;105088;1258;73791;-55
2024/01/13 04:15:53;;;;;;;6.70;2.20;;;;;;;-4.76;53.64;99829.24;105146;1258;70119;-56
2024/01/13 04:18:21;;;;;;;8.00;2.60;;;;;;;-4.89;53.82;99829.39;105815;1260;72714;-56
2024/01/13 04:20:49;;;;;;;10.00;3.20;;;;;;;-4.99;54.10;99827.08;105958;1257;60760;-55
2024/01/13 04:23:33;;;;;;;8.60;3.00;;;;;;;-5.04;54.31;99823.45;105484;1262;60533;-53
2024/01/13 04:26:00;;;;;;;6.50;3.20;;;;;;;-5.11;54.48;99823.27;104995;1258;73851;-53
2024/01/13 04:28:28;;;;;;;5.20;1.90;;;;;;;-5.17;54.69;99819.48;105188;1261;70729;-56
2024/01/13 04:30:56;;;;;;;8.00;2.40;;;;;;;-5.13;54.73;99819.23;105066;1262;71271;-53
2024/01/13 04:33:23;;;;;;;6.00;1.60;;;;;;;-5.06;54.66;99817.84;105611;1258;60452;-55
2024/01/13 04:35:51;;;;;;;5.00;1.90;;;;;;;-5.00;54.66;99818.73;105542;1257;61645;-53
2024/01/13 04:38:19;;;;;;;7.90;1.80;;;;;;;-4.97;54.69;99812.67;105138;1257;71889;-54
2024/01/13 04:40:47;;;;;;;8.30;1.60;;;;;;;-4.92;54.66;99809.65;104953;1258;68801;-56
2024/01/13 04:43:15;;;;;;;5.30;1.50;;;;;;;-4.86;54.74;99801.44;105246;1263;72613;-54
2024/01/13 04:45:43;;;;;;;4.10;1.20;;;;;;;-4.77;54.76;99801.70;105169;1262;60997;-54
2024/01/13 04:48:11;;;;;;;4.50;1.80;;;;;;;-4.70;54.57;99795.53;105460;1260;60447;-54
2024/01/13 04:50:38;;;;;;;8.00;2.40;;;;;;;-4.63;54.52;99796.73;105399;1257;71948;-53
2024/01/13 04:53:06;;;;;;;5.70;1.60;;;;;;;-4.58;54.32;99793.50;105340;1263;69911;-53
2024/01/13 04:55:33;;;;;;;6.80;1.50;;;;;;;-4.52;54.28;99794.88;105406;1260;71648;-53
2024/01/13 04:58:01;;;;;;;4.20;1.30;;;;;;;-4.45;54.25;99792.98;105169;1262;60436;-54
2024/01/13 05:00:31;;;;;;;7.10;1.60;;;;;;;-4.39;54.27;99790.41;105564;1257;60562;-53
2024/01/13 05:02:58;;;;;;;10.70;2.50;;;;;;;-4.35;54.31;99792.52;105209;1258;72970;-56
2024/01/13 05:05:26;;;;;;;5.60;2.20;;;;;;;-4.29;54.39;99789.29;105703;1261;70027;-53
2024/01/13 05:07:54;;;;;;;5.10;1.60;;;;;;;-4.23;54.36;99779.16;105605;1262;72698;-54
2024/01/13 05:10:22;;;;;;;5.30;1.50;;;;;;;-4.17;54.26;99774.02;105719;1257;60934;-53
2024/01/13 05:12:50;;;;;;;6.10;1.70;;;;;;;-4.11;54.07;99775.90;106018;1257;60363;-54
2024/01/13 05:15:18;;;;;;;6.70;2.20;;;;;;;-4.07;53.97;99773.57;106156;1257;73850;-53
2024/01/13 05:17:45;;;;;;;5.30;1.30;;;;;;;-4.03;54.14;99773.96;105289;1254;68273;-56
2024/01/13 05:20:13;;;;;;;7.30;2.20;;;;;;;-3.97;53.98;99778.41;105414;1254;73090;-53
2024/01/13 05:22:41;;;;;;;4.90;1.90;;;;;;;-3.92;54.04;99776.73;105595;1257;60448;-55
2024/01/13 05:25:14;;;;;;;5.30;1.80;;;;;;;-3.90;54.14;99778.38;105559;1256;60358;-53
2024/01/13 05:27:42;;;;;;;5.00;1.60;;;;;;;-3.89;54.11;99775.60;105533;1254;73794;-54
2024/01/13 05:30:10;;;;;;;6.10;2.50;;;;;;;-3.93;53.94;99770.57;105496;1257;70098;-53
2024/01/13 05:32:39;;;;;;;6.50;2.40;;;;;;;-4.02;54.02;99765.88;105661;1254;72992;-54
2024/01/13 05:35:08;;;;;;;8.20;1.70;;;;;;;-4.08;54.09;99762.80;105711;1253;60657;-54
2024/01/13 05:37:36;;;;;;;4.90;1.50;;;;;;;-4.15;54.24;99763.88;106577;1256;60447;-53
2024/01/13 05:40:05;;;;;;;6.60;2.50;;;;;;;-4.25;54.31;99761.27;105457;1254;73883;-51
2024/01/13 05:42:34;;;;;;;6.80;2.10;;;;;;;-4.29;54.35;99757.42;105655;1260;68832;-55
2024/01/13 05:45:02;;;;;;;8.40;2.80;;;;;;;-4.37;54.55;99756.27;105678;1260;70751;-58
2024/01/13 05:47:30;;;;;;;6.20;2.10;;;;;;;-4.41;54.69;99760.69;105899;1265;60621;-55
2024/01/13 05:49:57;;;;;;;8.50;2.00;;;;;;;-4.46;54.83;99761.85;105479;1257;60351;-54
2024/01/13 05:52:25;;;;;;;6.30;2.20;;;;;;;-4.51;54.81;99765.40;105946;1257;73757;-55
2024/01/13 05:54:53;;;;;;;5.50;1.80;;;;;;;-4.50;54.93;99762.66;105413;1260;69924;-54
2024/01/13 05:57:20;;;;;;;6.00;1.60;;;;;;;-4.43;54.79;99759.20;105502;1260;72667;-55
2024/01/13 05:59:48;;;;;;;6.00;1.40;;;;;;;-4.36;54.74;99760.70;106269;1257;61665;-55
2024/01/13 06:02:16;;;;;;;4.70;1.60;;;;;;;-4.29;54.83;99759.46;105478;1257;60546;-55
2024/01/13 06:04:44;;;;;;;4.00;1.30;;;;;;;-4.18;54.85;99758.63;105449;1258;73959;-55
2024/01/13 06:07:11;;;;;;;6.50;1.70;;;;;;;-4.08;54.71;99760.58;105570;1257;69913;-55
2024/01/13 06:09:39;;;;;;;6.70;2.00;;;;;;;-3.99;54.65;99761.32;105515;1259;71879;-54
2024/01/13 06:12:07;;;;;;;5.90;2.00;;;;;;;-3.89;54.54;99762.92;105661;1254;61341;-55
2024/01/13 06:14:35;;;;;;;5.30;1.80;;;;;;;-3.83;54.39;99764.98;105702;1259;60648;-52
2024/01/13 06:17:03;;;;;;;5.70;1.40;;;;;;;-3.78;54.41;99770.63;105430;1254;73911;-55
2024/01/13 06:19:30;;;;;;;6.40;1.60;;;;;;;-3.68;54.21;99770.67;105483;1257;69050;-54
2024/01/13 06:21:58;;;;;;;9.40;3.50;;;;;;;-3.62;54.08;99768.24;105376;1258;71670;-56
2024/01/13 06:24:26;;;;;;;7.90;2.40;;;;;;;-3.61;54.21;99771.65;105426;1259;60664;-53
2024/01/13 06:26:53;;;;;;;6.50;2.60;;;;;;;-3.60;54.22;99769.91;105444;1257;60549;-55
2024/01/13 06:29:21;;;;;;;9.30;2.90;;;;;;;-3.62;54.08;99770.31;105448;1257;74403;-56
2024/01/13 06:31:49;;;;;;;9.30;2.60;;;;;;;-3.63;54.06;99772.06;105409;1257;69947;-57
2024/01/13 06:34:16;;;;;;;6.20;2.40;;;;;;;-3.68;53.93;99772.73;106159;1256;70384;-57
2024/01/13 06:36:44;;;;;;;6.60;2.10;;;;;;;-3.76;53.79;99774.86;105504;1256;60542;-56
2024/01/13 06:39:12;;;;;;;6.60;2.40;;;;;;;-3.86;53.93;99779.28;105466;1256;60535;-56
2024/01/13 06:41:39;;;;;;;10.30;3.40;;;;;;;-3.98;53.96;99776.20;105592;1255;72587;-56
2024/01/13 06:44:07;;;;;;;13.00;4.00;;;;;;;-4.05;54.07;99772.82;105670;1258;69995;-57
2024/01/13 06:46:35;;;;;;;10.50;2.70;;;;;;;-4.11;54.20;99776.58;105456;1255;73325;-58
2024/01/13 06:49:02;;;;;;;10.80;2.80;;;;;;;-4.15;54.30;99776.21;105787;1254;60554;-59
2024/01/13 06:51:30;;;;;;;11.40;4.50;;;;;;;-4.19;54.52;99774.77;105459;1257;60437;-59
2024/01/13 06:53:58;;;;;;;9.00;3.40;;;;;;;-4.21;54.63;99776.21;105547;1257;74359;-59
2024/01/13 06:56:26;;;;;;;6.70;2.10;;;;;;;-4.21;54.80;99777.73;105421;1257;70461;-58
2024/01/13 06:58:53;;;;;;;13.20;4.30;;;;;;;-4.13;54.67;99781.61;105492;1254;72610;-58
2024/01/13 07:01:21;;;;;;;5.80;1.30;;;;;;;-4.02;54.58;99790.23;105451;1255;62292;-59
2024/01/13 07:03:49;;;;;;;6.10;2.00;;;;;;;-3.93;54.54;99789.41;107657;1255;61733;-56
2024/01/13 07:06:17;;;;;;;7.40;1.90;;;;;;;-3.81;54.56;99790.61;105564;1257;73840;-60
2024/01/13 07:08:45;;;;;;;7.00;2.10;;;;;;;-3.70;54.63;99794.05;105313;1264;70276;-58
2024/01/13 07:11:13;;;;;;;6.80;2.00;;;;;;;-3.60;54.57;99792.88;105382;1257;72625;-58
2024/01/13 07:13:42;;;;;;;7.30;2.10;;;;;;;-3.48;54.56;99793.86;105545;1257;60434;-59
2024/01/13 07:16:11;;;;;;;6.60;1.70;;;;;;;-3.32;54.44;99793.39;105624;1255;60604;-59
2024/01/13 07:18:39;;;;;;;9.60;2.50;;;;;;;-3.16;54.40;99793.02;105770;1257;73828;-60
2024/01/13 07:21:07;;;;;;;10.50;3.10;;;;;;;-3.05;54.53;99791.47;105651;1257;69540;-60
2024/01/13 07:23:35;;;;;;;5.70;1.80;;;;;;;-3.01;54.60;99793.37;105714;1254;71397;-60
2024/01/13 07:26:03;;;;;;;8.40;2.30;;;;;;;-3.01;54.47;99795.25;105468;1254;60487;-60
2024/01/13 07:28:31;;;;;;;9.60;2.80;;;;;;;-3.01;54.33;99795.25;105438;1254;60358;-62
2024/01/13 07:30:58;;;;;;;8.50;4.10;;;;;;;-3.02;54.29;99794.26;105822;1258;74390;-59
2024/01/13 07:33:26;;;;;;;10.10;2.80;;;;;;;-3.06;54.40;99796.29;105853;1254;70578;-59
2024/01/13 07:35:54;;;;;;;9.00;2.90;;;;;;;-3.10;54.17;99797.80;105378;1266;71449;-60
2024/01/13 07:38:22;;;;;;;11.40;2.30;;;;;;;-3.16;54.30;99797.30;105967;1255;60585;-60
2024/01/13 07:40:50;;;;;;;11.30;4.60;;;;;;;-3.21;54.34;99797.98;106086;1255;60651;-59
2024/01/13 07:43:17;;;;;;;7.70;3.80;;;;;;;-3.24;54.25;99805.95;105365;1255;73807;-58
2024/01/13 07:45:45;;;;;;;10.10;2.70;;;;;;;-3.26;54.27;99807.58;106047;1257;69136;-58
2024/01/13 07:48:13;;;;;;;8.90;2.80;;;;;;;-3.27;54.32;99810.02;105437;1257;71311;-59
2024/01/13 07:50:40;;;;;;;6.40;2.70;;;;;;;-3.28;54.54;99815.02;105416;1254;62822;-58
2024/01/13 07:53:08;;;;;;;6.10;2.90;;;;;;;-3.27;54.56;99813.79;105478;1257;60395;-58
2024/01/13 07:55:36;;;;;;;6.80;3.10;;;;;;;-3.29;54.86;99814.20;105459;1256;73792;-58
2024/01/13 07:58:03;;;;;;;7.90;2.50;;;;;;;-3.32;54.89;99815.66;105346;1258;70478;-58
2024/01/13 08:00:31;;;;;;;8.30;2.60;;;;;;;-3.35;55.14;99813.36;105555;1259;73204;-58
2024/01/13 08:02:59;;;;;;;8.10;2.90;;;;;;;-3.37;55.27;99819.27;105506;1255;60415;-58
2024/01/13 08:05:26;;;;;;;9.90;2.90;;;;;;;-3.39;55.39;99820.52;105957;1254;60523;-58
2024/01/13 08:07:57;;;;;;;8.10;2.70;;;;;;;-3.39;55.31;99819.83;105792;1254;72158;-54
2024/01/13 08:10:25;;;;;;;9.60;3.20;;;;;;;-3.40;55.37;99819.54;105415;1255;70511;-55
2024/01/13 08:12:52;;;;;;;13.10;3.20;;;;;;;-3.43;55.47;99819.78;105478;1254;72614;-56
2024/01/13 08:15:20;;;;;;;7.10;2.70;;;;;;;-3.41;55.42;99824.17;105968;1258;60898;-57
2024/01/13 08:17:47;;;;;;;7.90;2.70;;;;;;;-3.40;55.54;99833.23;105397;1257;60449;-56
2024/01/13 08:20:15;;;;;;;10.40;2.80;;;;;;;-3.39;55.61;99837.49;105512;1256;74945;-56
2024/01/13 08:22:43;;;;;;;8.00;2.10;;;;;;;-3.38;55.71;99842.95;105458;1259;68690;-56
2024/01/13 08:25:11;;;;;;;7.50;2.60;;;;;;;-3.28;55.60;99843.48;105290;1255;72643;-56
2024/01/13 08:27:38;;;;;;;9.80;2.90;;;;;;;-3.15;55.52;99842.05;105263;1255;61638;-56
2024/01/13 08:30:06;;;;;;;10.10;3.00;;;;;;;-3.04;55.40;99849.77;105309;1252;60501;-56
2024/01/13 08:32:34;;;;;;;6.90;2.30;;;;;;;-2.90;55.49;99859.60;105728;1253;73870;-56
2024/01/13 08:35:03;;;;;;;6.60;2.10;;;;;;;-2.72;55.48;99865.38;105363;1257;71135;-56
2024/01/13 08:37:30;;;;;;;12.20;2.20;;;;;;;-2.55;55.24;99869.25;105762;1254;72427;-57
2024/01/13 08:39:58;;;;;;;7.10;2.40;;;;;;;-2.41;55.06;99868.95;105859;1256;61331;-55
2024/01/13 08:42:26;;;;;;;11.30;3.40;;;;;;;-2.25;54.99;99870.63;106054;1260;60552;-55
2024/01/13 08:44:53;;;;;;;9.20;2.80;;;;;;;-2.14;54.80;99872.46;106028;1254;71822;-57
2024/01/13 08:47:21;;;;;;;8.80;3.80;;;;;;;-2.11;54.60;99873.91;105499;1256;69487;-56
2024/01/13 08:49:49;;;;;;;12.30;3.70;;;;;;;-2.15;54.54;99874.71;105352;1257;71684;-55
2024/01/13 08:52:16;;;;;;;9.20;3.80;;;;;;;-2.06;54.56;99879.90;105429;1255;60485;-56
2024/01/13 08:54:44;;;;;;;9.20;2.90;;;;;;;-1.98;54.38;99878.42;106175;1254;60611;-56
2024/01/13 08:57:11;;;;;;;10.80;3.50;;;;;;;-1.95;54.10;99880.72;105442;1254;72770;-56
2024/01/13 08:59:39;;;;;;;11.00;4.30;;;;;;;-1.95;53.76;99878.83;105424;1254;70432;-56
2024/01/13 09:02:08;;;;;;;10.30;3.10;;;;;;;-1.94;53.68;99880.70;105527;1257;72667;-55
2024/01/13 09:04:36;;;;;;;8.10;2.60;;;;;;;-1.96;53.41;99878.85;105696;1256;60635;-54
2024/01/13 09:07:03;;;;;;;7.00;2.60;;;;;;;-1.99;53.06;99877.94;105255;1257;228411;-54
2024/01/13 09:10:50;;;;;;;7.40;3.50;;;;;;;-2.41;53.99;99886.79;102352;1289;600377;-55
2024/01/13 09:13:18;;;;;;;7.60;2.70;;;;;;;-2.09;52.95;99879.34;105132;1265;60605;-55
2024/01/13 09:15:48;;;;;;;8.00;3.60;;;;;;;-2.06;52.73;99876.97;104486;1270;59838;-55
2024/01/13 09:18:16;;;;;;;8.70;2.70;;;;;;;-2.10;52.76;99873.52;104354;1266;71966;-55
2024/01/13 09:20:45;;;;;;;9.80;3.00;;;;;;;-2.11;52.73;99870.27;104578;1267;72512;-56
2024/01/13 09:23:13;;;;;;;10.10;2.30;;;;;;;-2.09;52.60;99877.09;108446;1266;72445;-55
2024/01/13 09:25:40;;;;;;;12.40;3.70;;;;;;;-2.09;52.50;99883.61;108345;1262;236472;-55
2024/01/13 09:28:09;;;;;;;9.50;3.40;;;;;;;-2.09;52.42;99888.59;108480;1263;58812;-55
2024/01/13 09:30:37;;;;;;;7.70;3.20;;;;;;;-2.05;52.42;99893.97;108558;1263;72526;-55
2024/01/13 09:33:05;;;;;;;8.30;3.80;;;;;;;-2.04;52.33;99897.19;108553;1264;68881;-55
2024/01/13 09:35:33;;;;;;;8.40;3.20;;;;;;;-2.02;52.24;99903.16;108522;1264;71840;-56
2024/01/13 09:38:00;;;;;;;11.50;4.40;;;;;;;-2.00;52.28;99904.27;106541;1259;59580;-56
2024/01/13 09:40:28;;;;;;;8.60;3.40;;;;;;;-1.97;52.32;99905.02;105668;1254;60032;-56
2024/01/13 09:43:24;;;;;;;10.00;4.40;;;;;;;-1.92;52.27;99912.92;105342;1254;73742;-57
2024/01/13 09:45:52;;;;;;;14.50;5.30;;;;;;;-1.88;52.10;99917.41;105827;1259;70471;-56
2024/01/13 09:48:20;;;;;;;10.60;3.70;;;;;;;-1.88;52.11;99918.79;106002;1253;70891;-58
2024/01/13 09:50:52;;;;;;;8.80;3.80;;;;;;;-1.86;51.92;99921.64;105826;1257;60325;-56
2024/01/13 09:53:28;;;;;;;9.00;3.70;;;;;;;-1.87;51.85;99923.23;105805;1254;59912;-55
2024/01/13 09:56:07;;;;;;;;;;;;;;;-1.87;51.73;99927.54;105294;1254;71853;-56
2024/01/13 09:58:34;;;;;;;8.10;3.00;;;;;;;-1.87;51.79;99931.67;105531;1259;69651;-56
2024/01/13 10:01:03;;;;;;;10.70;2.70;;;;;;;-1.89;51.82;99938.11;105299;1254;72933;-57
2024/01/13 10:03:30;;;;;;;9.90;3.70;;;;;;;-1.90;51.79;99936.91;105641;1259;59603;-56
2024/01/13 10:05:59;;;;;;;9.60;3.20;;;;;;;-1.91;51.77;99940.91;105221;1262;60801;-56
2024/01/13 10:08:30;;;;;;;9.50;3.80;;;;;;;-1.89;51.90;99942.73;106571;1254;71911;-56
2024/01/13 10:11:04;;;;;;;10.50;4.80;;;;;;;-1.87;51.92;99951.59;105310;1254;70421;-57
2024/01/13 10:13:32;;;;;;;10.20;3.70;;;;;;;-1.84;51.98;99955.10;105327;1257;73438;-57
2024/01/13 10:15:59;;;;;;;9.70;3.00;;;;;;;-1.82;51.86;99960.02;105665;1253;60417;-56
2024/01/13 10:18:27;;;;;;;8.20;3.50;;;;;;;-1.81;51.89;99956.90;105254;1259;59579;-56
2024/01/13 10:20:55;;;;;;;6.80;2.80;;;;;;;-1.80;51.77;99952.91;105771;1257;73009;-57
2024/01/13 10:23:22;;;;;;;7.50;2.60;;;;;;;-1.80;51.67;99945.52;105154;1262;71323;-56
2024/01/13 10:25:50;;;;;;;8.30;3.10;;;;;;;-1.80;51.68;99950.83;105148;1262;71544;-56
2024/01/13 10:28:18;;;;;;;8.40;3.00;;;;;;;-1.80;51.75;99951.55;105219;1256;59743;-58
2024/01/13 10:30:49;;;;;;;11.70;4.90;;;;;;;-1.79;51.70;99952.69;105244;1258;59715;-56
2024/01/13 10:33:17;;;;;;;10.60;3.60;;;;;;;-1.76;51.68;99953.10;105384;1254;73100;-54
2024/01/13 10:35:47;;;;;;;7.30;2.90;;;;;;;-1.76;51.51;99954.33;105257;1257;70798;-58
2024/01/13 10:38:15;;;;;;;10.50;3.10;;;;;;;-1.76;51.54;99953.63;105306;1260;71489;-57
2024/01/13 10:40:42;;;;;;;12.00;4.40;;;;;;;-1.74;51.55;99953.55;105175;1259;60035;-58
2024/01/13 10:43:10;;;;;;;14.10;4.10;;;;;;;-1.72;51.49;99956.91;105332;1259;59732;-57
2024/01/13 10:45:37;;;;;;;8.60;3.30;;;;;;;-1.71;51.59;99959.77;105245;1260;71667;-56
2024/01/13 10:48:09;;;;;;;8.10;3.00;;;;;;;-1.67;51.47;99959.67;105113;1254;69927;-58
2024/01/13 10:50:38;;;;;;;9.90;4.90;;;;;;;-1.64;51.49;99961.80;105358;1261;71513;-57
2024/01/13 10:53:26;;;;;;;12.00;3.30;;;;;;;-1.61;51.47;99958.92;105364;1259;59766;-56
2024/01/13 10:55:54;;;;;;;15.00;3.90;;;;;;;-1.59;51.28;99960.41;105807;1260;59690;-57
2024/01/13 10:58:22;;;;;;;9.00;4.60;;;;;;;-1.59;51.05;99961.79;105021;1259;73537;-56
2024/01/13 11:00:50;;;;;;;8.50;3.80;;;;;;;-1.60;50.84;99962.52;105816;1255;72330;-56
2024/01/13 11:03:18;;;;;;;9.00;4.30;;;;;;;-1.66;50.57;99959.11;105987;1259;71599;-56
2024/01/13 11:05:46;;;;;;;11.80;4.40;;;;;;;-1.74;50.64;99969.20;105215;1260;59856;-57
2024/01/13 11:08:14;;;;;;;10.10;4.10;;;;;;;-1.85;50.68;99965.98;106000;1254;62443;-57
2024/01/13 11:10:42;;;;;;;12.00;4.80;;;;;;;-1.87;50.97;99967.61;105343;1254;74562;-58
2024/01/13 11:13:12;;;;;;;16.40;5.30;;;;;;;-1.87;50.98;99966.71;105339;1259;70387;-57
2024/01/13 11:15:43;;;;;;;11.50;3.70;;;;;;;-1.89;51.02;99967.49;105281;1262;71429;-59
2024/01/13 11:18:18;;;;;;;13.60;4.00;;;;;;;-1.90;51.02;99969.40;105277;1256;60027;-56
2024/01/13 11:20:59;;;;;;;12.50;4.80;;;;;;;-1.87;50.99;99966.57;105223;1254;59618;-56
2024/01/13 11:23:27;;;;;;;13.20;3.50;;;;;;;-1.88;50.74;99972.45;105118;1253;71840;-56
2024/01/13 11:25:54;;;;;;;9.90;3.90;;;;;;;-1.90;50.72;99979.39;105201;1259;70917;-57
2024/01/13 11:28:22;;;;;;;13.40;5.10;;;;;;;-1.94;50.57;99980.21;105126;1260;71804;-55
2024/01/13 11:30:50;;;;;;;9.40;3.90;;;;;;;-2.02;50.51;99981.69;105684;1259;59332;-56